Time;durP1;ratioP1;P1;durP2;ratioP2;P2;SDS_P1;SDS_P2;PMS_P1;PMS_P2;Temp;Humidity;BMP_temperature;BMP_pressure;BME280_temperature;BME280_humidity;BME280_pressure;Samples;Min_cycle;Max_cycle;Signal;HPM_P1;HPM_P2
2023/08/13 00:03:05;;;;;;;6.03;4.85;;;;;;;-140.66;100.00;55571.53;5136326;27;20047;-72
2023/08/13 00:06:50;;;;;;;6.47;5.07;;;;;;;-140.66;100.00;55571.53;5135321;27;20394;-72
2023/08/13 00:10:34;;;;;;;10.10;4.53;;;;;;;-140.66;100.00;55571.53;5136395;27;20026;-72
2023/08/13 00:14:19;;;;;;;11.15;4.90;;;;;;;-140.66;100.00;55571.53;5135301;27;20418;-72
2023/08/13 00:18:04;;;;;;;7.97;4.68;;;;;;;-140.66;100.00;55571.53;5134339;27;20042;-71
2023/08/13 00:21:48;;;;;;;6.35;4.88;;;;;;;-140.66;100.00;55571.53;5134900;27;20039;-72
2023/08/13 00:25:34;;;;;;;6.32;5.20;;;;;;;-140.66;100.00;55571.53;5134761;27;20360;-71
2023/08/13 00:29:18;;;;;;;9.85;5.90;;;;;;;-140.66;100.00;55571.53;5134461;27;20023;-72
2023/08/13 00:33:02;;;;;;;9.45;6.43;;;;;;;-140.66;100.00;55571.53;5135983;27;20122;-72
2023/08/13 00:36:47;;;;;;;11.40;6.95;;;;;;;-140.66;100.00;55571.53;5134525;27;20106;-72
2023/08/13 00:40:34;;;;;;;9.93;6.82;;;;;;;-140.66;100.00;55571.53;5135174;27;20445;-72
2023/08/13 00:44:18;;;;;;;8.68;6.45;;;;;;;-140.66;100.00;55571.53;5134690;27;20075;-72
2023/08/13 00:48:05;;;;;;;8.43;7.03;;;;;;;-140.66;100.00;55571.53;5134498;27;20118;-72
2023/08/13 00:51:49;;;;;;;12.27;8.00;;;;;;;-140.66;100.00;55571.53;5134690;27;20059;-72
2023/08/13 00:55:34;;;;;;;10.25;7.07;;;;;;;-140.66;100.00;55571.53;5135587;27;20363;-72
2023/08/13 00:59:20;;;;;;;8.98;7.30;;;;;;;-140.66;100.00;55571.53;5135279;27;20406;-72
2023/08/13 01:03:04;;;;;;;10.85;6.95;;;;;;;-140.66;100.00;55571.53;5134359;27;20019;-72
2023/08/13 01:06:52;;;;;;;10.82;6.40;;;;;;;-140.66;100.00;55571.53;5134922;27;20364;-73
2023/08/13 01:10:37;;;;;;;13.25;7.03;;;;;;;-140.66;100.00;55571.53;5134537;27;20480;-72
2023/08/13 01:14:37;;;;;;;10.40;6.45;;;;;;;-140.66;100.00;55571.53;5135614;28;20023;-73
2023/08/13 01:18:24;;;;;;;20.15;6.25;;;;;;;-140.66;100.00;55571.53;5134284;28;20039;-72
2023/08/13 01:22:08;;;;;;;7.63;5.90;;;;;;;-140.66;100.00;55571.53;5134252;28;20360;-72
2023/08/13 01:25:56;;;;;;;9.07;5.38;;;;;;;-140.66;100.00;55571.53;5135366;28;20054;-72
2023/08/13 01:30:10;;;;;;;9.02;5.60;;;;;;;-140.66;100.00;55571.53;5134677;28;20027;-71
2023/08/13 01:34:02;;;;;;;8.57;5.65;;;;;;;-140.66;100.00;55571.53;5133696;28;20023;-72
2023/08/13 01:37:47;;;;;;;8.40;5.80;;;;;;;-140.66;100.00;55571.53;5134213;28;20039;-72
2023/08/13 01:41:35;;;;;;;6.57;5.57;;;;;;;-140.66;100.00;55571.53;5133989;28;20449;-72
2023/08/13 01:45:20;;;;;;;6.63;5.43;;;;;;;-140.66;100.00;55571.53;5134202;28;20035;-72
2023/08/13 01:49:04;;;;;;;12.65;5.68;;;;;;;-140.66;100.00;55571.53;5133805;28;20494;-72
2023/08/13 01:52:49;;;;;;;7.20;5.38;;;;;;;-140.66;100.00;55571.53;5134101;28;20046;-72
2023/08/13 01:56:33;;;;;;;8.57;6.13;;;;;;;-140.66;100.00;55571.53;5133709;27;20023;-72
2023/08/13 02:00:17;;;;;;;8.43;6.13;;;;;;;-140.66;100.00;55571.53;5138773;27;20084;-71
2023/08/13 02:04:01;;;;;;;8.00;6.03;;;;;;;-140.66;100.00;55571.53;5138662;27;20027;-72
2023/08/13 02:07:45;;;;;;;9.93;6.38;;;;;;;-140.66;100.00;55571.53;5139862;27;20087;-72
2023/08/13 02:11:30;;;;;;;8.45;5.88;;;;;;;-140.66;100.00;55571.53;5151610;27;20023;-73
2023/08/13 02:15:14;;;;;;;8.77;6.03;;;;;;;-140.66;100.00;55571.53;5139314;27;20015;-72
2023/08/13 02:18:58;;;;;;;11.18;7.15;;;;;;;-140.66;100.00;55571.53;5137520;27;20023;-72
2023/08/13 02:22:43;;;;;;;8.30;6.70;;;;;;;-140.66;100.00;55571.53;5137302;27;20034;-70
2023/08/13 02:26:27;;;;;;;11.20;7.05;;;;;;;-140.66;100.00;55571.53;5138228;27;20114;-72
2023/08/13 02:30:11;;;;;;;8.70;6.30;;;;;;;-140.66;100.00;55571.53;5137616;27;20027;-72
2023/08/13 02:33:56;;;;;;;8.13;6.40;;;;;;;-140.66;100.00;55571.53;5138042;27;20023;-73
2023/08/13 02:37:40;;;;;;;8.27;6.53;;;;;;;-140.66;100.00;55571.53;5136837;27;20102;-71
2023/08/13 02:41:24;;;;;;;9.00;6.53;;;;;;;-140.66;100.00;55571.53;5138784;27;20031;-72
2023/08/13 02:45:08;;;;;;;8.85;7.10;;;;;;;-140.66;100.00;55571.53;5136361;27;20027;-72
2023/08/13 02:48:56;;;;;;;9.57;7.07;;;;;;;-140.66;100.00;55571.53;5135832;27;20046;-71
2023/08/13 02:52:40;;;;;;;9.85;7.45;;;;;;;-140.66;100.00;55571.53;5137403;27;20088;-71
2023/08/13 02:56:25;;;;;;;9.85;7.28;;;;;;;-140.66;100.00;55571.53;5136448;27;20368;-72
2023/08/13 03:00:09;;;;;;;9.32;7.18;;;;;;;-140.66;100.00;55571.53;5136485;27;20031;-72
2023/08/13 03:03:54;;;;;;;11.05;7.07;;;;;;;-140.66;100.00;55571.53;5136497;27;20436;-72
2023/08/13 03:07:39;;;;;;;10.70;7.13;;;;;;;-140.66;100.00;55571.53;5137112;27;20050;-72
2023/08/13 03:11:23;;;;;;;10.38;7.90;;;;;;;-140.66;100.00;55571.53;5136389;27;20023;-71
2023/08/13 03:15:07;;;;;;;12.38;7.15;;;;;;;-140.66;100.00;55571.53;5136922;27;20096;-72
2023/08/13 03:18:52;;;;;;;10.80;7.43;;;;;;;-140.66;100.00;55571.53;5135873;27;20106;-72
2023/08/13 03:22:37;;;;;;;10.43;7.18;;;;;;;-140.66;100.00;55571.53;5136187;27;20034;-72
2023/08/13 03:26:21;;;;;;;15.50;7.47;;;;;;;-140.66;100.00;55571.53;5136898;27;20114;-71
2023/08/13 03:30:06;;;;;;;10.90;7.53;;;;;;;-140.66;100.00;55571.53;5135945;27;20095;-72
2023/08/13 03:33:50;;;;;;;9.85;7.25;;;;;;;-140.66;100.00;55571.53;5136613;27;20015;-72
2023/08/13 03:37:34;;;;;;;8.25;6.82;;;;;;;-140.66;100.00;55571.53;5136676;27;20063;-72
2023/08/13 03:41:18;;;;;;;12.77;7.50;;;;;;;-140.66;100.00;55571.53;5137008;27;20091;-72
2023/08/13 03:45:03;;;;;;;11.55;7.07;;;;;;;-140.66;100.00;55571.53;5136982;27;20348;-72
2023/08/13 03:48:47;;;;;;;10.77;6.43;;;;;;;-140.66;100.00;55571.53;5136194;27;20146;-72
2023/08/13 03:52:31;;;;;;;13.55;7.40;;;;;;;-140.66;100.00;55571.53;5136286;27;20058;-72
2023/08/13 03:56:15;;;;;;;9.13;7.05;;;;;;;-140.66;100.00;55571.53;5135855;27;20039;-71
2023/08/13 04:00:00;;;;;;;10.63;6.75;;;;;;;-140.66;100.00;55571.53;5135860;27;20438;-71
2023/08/13 04:03:47;;;;;;;11.30;7.13;;;;;;;-140.66;100.00;55571.53;5135742;27;20096;-71
2023/08/13 04:07:31;;;;;;;9.00;6.75;;;;;;;-140.66;100.00;55571.53;5135553;27;20034;-71
2023/08/13 04:11:15;;;;;;;10.65;6.70;;;;;;;-140.66;100.00;55571.53;5135579;27;20070;-71
2023/08/13 04:15:00;;;;;;;12.55;6.43;;;;;;;-140.66;100.00;55571.53;5135372;27;20106;-72
2023/08/13 04:18:45;;;;;;;11.32;7.28;;;;;;;-140.66;100.00;55571.53;5135716;27;20114;-71
2023/08/13 04:22:29;;;;;;;10.18;7.38;;;;;;;-140.66;100.00;55571.53;5136089;27;20089;-72
2023/08/13 04:26:14;;;;;;;9.02;6.53;;;;;;;-140.66;100.00;55571.53;5134831;27;20031;-72
2023/08/13 04:29:58;;;;;;;12.68;6.53;;;;;;;-140.66;100.00;55571.53;5135009;27;20444;-72
2023/08/13 04:33:50;;;;;;;8.30;6.43;;;;;;;-140.66;100.00;55571.53;5135754;27;20031;-72
2023/08/13 04:37:34;;;;;;;12.57;6.70;;;;;;;-140.66;100.00;55571.53;5135732;27;20102;-72
2023/08/13 04:41:18;;;;;;;10.63;6.75;;;;;;;-140.66;100.00;55571.53;5135536;27;20030;-72
2023/08/13 04:45:03;;;;;;;10.13;6.53;;;;;;;-140.66;100.00;55571.53;5134864;27;20034;-72
2023/08/13 04:48:48;;;;;;;12.35;6.65;;;;;;;-140.66;100.00;55571.53;5135134;27;20058;-72
2023/08/13 04:52:32;;;;;;;10.65;6.18;;;;;;;-140.66;100.00;55571.53;5135429;27;20063;-72
2023/08/13 04:56:16;;;;;;;10.40;6.22;;;;;;;-140.66;100.00;55571.53;5134559;27;20038;-72
2023/08/13 05:00:01;;;;;;;10.65;6.13;;;;;;;-140.66;100.00;55571.53;5138399;27;20055;-72
2023/08/13 05:03:45;;;;;;;12.85;6.22;;;;;;;-140.66;100.00;55571.53;5134563;27;20476;-72
2023/08/13 05:07:30;;;;;;;8.43;6.40;;;;;;;-140.66;100.00;55571.53;5139797;27;20106;-71
2023/08/13 05:11:14;;;;;;;10.90;6.20;;;;;;;-140.66;100.00;55571.53;5138665;28;20418;-70
2023/08/13 05:14:58;;;;;;;9.75;6.47;;;;;;;-140.66;100.00;55571.53;5138743;28;20029;-71
2023/08/13 05:18:42;;;;;;;7.22;5.60;;;;;;;-140.66;100.00;55571.53;5138982;28;20046;-73
2023/08/13 05:22:26;;;;;;;8.57;5.78;;;;;;;-140.66;100.00;55571.53;5149006;28;20041;-71
2023/08/13 05:26:13;;;;;;;9.65;6.07;;;;;;;-140.66;100.00;55571.53;5144841;28;20053;-70
2023/08/13 05:29:57;;;;;;;10.77;6.05;;;;;;;-140.66;100.00;55571.53;5139351;28;20038;-72
2023/08/13 05:33:41;;;;;;;7.28;6.15;;;;;;;-140.66;100.00;55571.53;5142018;27;20026;-70
2023/08/13 05:37:26;;;;;;;10.45;5.72;;;;;;;-140.66;100.00;55571.53;5142634;27;20360;-73
2023/08/13 05:41:10;;;;;;;11.43;5.80;;;;;;;-140.66;100.00;55571.53;5140899;27;20100;-70
2023/08/13 05:44:54;;;;;;;11.20;6.47;;;;;;;-140.66;100.00;55571.53;5139103;27;20034;-72
2023/08/13 05:48:39;;;;;;;13.35;5.80;;;;;;;-140.66;100.00;55571.53;5138743;27;20073;-72
2023/08/13 05:52:24;;;;;;;9.65;5.97;;;;;;;-140.66;100.00;55571.53;5138714;27;20059;-72
2023/08/13 05:56:08;;;;;;;7.25;6.28;;;;;;;-140.66;100.00;55571.53;5139714;27;20445;-73
2023/08/13 05:59:52;;;;;;;10.60;6.13;;;;;;;-140.66;100.00;55571.53;5139117;27;20031;-72
2023/08/13 06:03:37;;;;;;;7.13;5.93;;;;;;;-140.66;100.00;55571.53;5139292;27;20045;-72
2023/08/13 06:07:21;;;;;;;15.65;7.20;;;;;;;-140.66;100.00;55571.53;5138689;27;20368;-72
2023/08/13 06:11:05;;;;;;;15.95;8.15;;;;;;;-140.66;100.00;55571.53;5138058;27;20079;-72
2023/08/13 06:14:49;;;;;;;23.35;8.82;;;;;;;-140.66;100.00;55571.53;5138712;27;20418;-72
2023/08/13 06:18:34;;;;;;;17.50;7.10;;;;;;;-140.66;100.00;55571.53;5138399;27;20027;-72
2023/08/13 06:22:18;;;;;;;15.43;7.35;;;;;;;-140.66;100.00;55571.53;5138560;27;20023;-73
2023/08/13 06:26:03;;;;;;;10.65;6.72;;;;;;;-140.66;100.00;55571.53;5137977;27;20060;-73
2023/08/13 06:29:47;;;;;;;11.05;6.68;;;;;;;-140.66;100.00;55571.53;5139262;27;20475;-73
2023/08/13 06:33:31;;;;;;;7.70;6.47;;;;;;;-140.66;100.00;55571.53;5138344;27;20027;-72
2023/08/13 06:37:15;;;;;;;8.88;6.75;;;;;;;-140.66;100.00;55571.53;5138162;27;20084;-72
2023/08/13 06:41:03;;;;;;;13.07;6.88;;;;;;;-140.66;100.00;55571.53;5146015;27;20019;-72
2023/08/13 06:44:48;;;;;;;11.40;7.00;;;;;;;-140.66;100.00;55571.53;5147671;27;20080;-71
2023/08/13 06:48:33;;;;;;;10.18;7.10;;;;;;;-140.66;100.00;55571.53;5149427;27;20081;-71
2023/08/13 06:52:17;;;;;;;10.15;6.70;;;;;;;-140.66;100.00;55571.53;5149348;27;20068;-71
2023/08/13 06:56:01;;;;;;;11.68;6.75;;;;;;;-140.66;100.00;55571.53;5150200;27;20093;-71
2023/08/13 06:59:46;;;;;;;12.88;6.20;;;;;;;-140.66;100.00;55571.53;5151064;27;20027;-71
2023/08/13 07:03:31;;;;;;;9.05;6.70;;;;;;;-140.66;100.00;55571.53;5149819;27;20027;-72
2023/08/13 07:07:15;;;;;;;10.85;7.28;;;;;;;-140.66;100.00;55571.53;5150732;27;20060;-72
2023/08/13 07:10:59;;;;;;;11.70;6.53;;;;;;;-140.66;100.00;55571.53;5150323;27;20027;-70
2023/08/13 07:14:45;;;;;;;13.05;6.82;;;;;;;-140.66;100.00;55571.53;5148108;27;20379;-72
2023/08/13 07:18:29;;;;;;;10.32;7.22;;;;;;;-140.66;100.00;55571.53;5137829;27;20096;-71
2023/08/13 07:22:14;;;;;;;9.52;7.00;;;;;;;-140.66;100.00;55571.53;5137446;27;20408;-72
2023/08/13 07:25:58;;;;;;;9.85;7.00;;;;;;;-140.66;100.00;55571.53;5141247;27;20031;-71
2023/08/13 07:29:42;;;;;;;11.60;7.00;;;;;;;-140.66;100.00;55571.53;5142344;27;20161;-72
2023/08/13 07:33:26;;;;;;;10.00;6.47;;;;;;;-140.66;100.00;55571.53;5126384;27;20035;-71
2023/08/13 07:37:12;;;;;;;13.75;6.20;;;;;;;-140.66;100.00;55571.53;5137618;27;20448;-72
2023/08/13 07:40:57;;;;;;;9.02;6.07;;;;;;;-140.66;100.00;55571.53;5141173;27;20038;-71
2023/08/13 07:44:41;;;;;;;9.90;6.03;;;;;;;-140.66;100.00;55571.53;5143430;27;20042;-71
2023/08/13 07:48:25;;;;;;;7.85;5.97;;;;;;;-140.66;100.00;55571.53;5145196;27;20130;-71
2023/08/13 07:52:09;;;;;;;9.25;6.10;;;;;;;-140.66;100.00;55571.53;5145408;27;20027;-72
2023/08/13 07:55:53;;;;;;;11.73;5.72;;;;;;;-140.66;100.00;55571.53;5144872;27;20341;-71
2023/08/13 07:59:38;;;;;;;9.68;5.88;;;;;;;-140.66;100.00;55571.53;5143445;27;20027;-71
2023/08/13 08:03:22;;;;;;;7.00;5.15;;;;;;;-140.66;100.00;55571.53;5144016;27;20023;-72
2023/08/13 08:07:06;;;;;;;9.65;5.70;;;;;;;-140.66;100.00;55571.53;5143276;27;20027;-71
2023/08/13 08:10:51;;;;;;;8.40;5.47;;;;;;;-140.66;100.00;55571.53;5144750;27;20058;-74
2023/08/13 08:14:35;;;;;;;6.30;5.00;;;;;;;-140.66;100.00;55571.53;5141224;27;20045;-72
2023/08/13 08:18:19;;;;;;;7.97;5.10;;;;;;;-140.66;100.00;55571.53;5137229;27;20421;-73
2023/08/13 08:22:03;;;;;;;7.95;5.13;;;;;;;-140.66;100.00;55571.53;5136996;27;20022;-72
2023/08/13 08:25:48;;;;;;;7.97;4.85;;;;;;;-140.66;100.00;55571.53;5135979;27;20031;-72
2023/08/13 08:29:32;;;;;;;6.97;5.20;;;;;;;-140.66;100.00;55571.53;5135137;27;20479;-72
2023/08/13 08:33:16;;;;;;;7.05;4.75;;;;;;;-140.66;100.00;55571.53;5135829;27;20069;-72
2023/08/13 08:37:01;;;;;;;6.10;4.78;;;;;;;-140.66;100.00;55571.53;5135055;27;20023;-73
2023/08/13 08:40:47;;;;;;;8.35;4.78;;;;;;;-140.66;100.00;55571.53;5135602;27;20076;-72
2023/08/13 08:44:36;;;;;;;16.42;4.50;;;;;;;-140.66;100.00;55571.53;5134898;27;20106;-73
2023/08/13 08:48:22;;;;;;;13.93;4.60;;;;;;;-140.66;100.00;55571.53;5134438;27;20089;-72
2023/08/13 08:52:07;;;;;;;7.60;4.68;;;;;;;-140.66;100.00;55571.53;5134740;27;20046;-72
2023/08/13 08:55:52;;;;;;;8.65;4.40;;;;;;;-140.66;100.00;55571.53;5135660;27;20357;-72
2023/08/13 08:59:37;;;;;;;5.78;4.10;;;;;;;-140.66;100.00;55571.53;5147677;27;20084;-73
2023/08/13 09:03:21;;;;;;;5.97;3.90;;;;;;;-140.66;100.00;55571.53;5147701;27;20027;-73
2023/08/13 09:07:06;;;;;;;3.97;3.58;;;;;;;-140.66;100.00;55571.53;5143565;27;20102;-72
2023/08/13 09:10:50;;;;;;;4.70;3.70;;;;;;;-140.66;100.00;55571.53;5135219;27;20445;-72
2023/08/13 09:14:35;;;;;;;5.15;4.22;;;;;;;-140.66;100.00;55571.53;5134331;28;20023;-72
2023/08/13 09:18:21;;;;;;;7.32;3.95;;;;;;;-140.66;100.00;55571.53;5135509;28;20122;-72
2023/08/13 09:22:07;;;;;;;6.80;4.10;;;;;;;-140.66;100.00;55571.53;5135830;27;20019;-73
2023/08/13 09:25:55;;;;;;;6.72;3.60;;;;;;;-140.66;100.00;55571.53;5135233;28;20445;-72
2023/08/13 09:29:42;;;;;;;6.00;4.10;;;;;;;-140.66;100.00;55571.53;5133289;28;20035;-73
2023/08/13 09:33:27;;;;;;;5.13;3.40;;;;;;;-140.66;100.00;55571.53;5133897;28;20027;-72
2023/08/13 09:37:11;;;;;;;6.15;3.70;;;;;;;-140.66;100.00;55571.53;5134001;28;20031;-72
2023/08/13 09:40:55;;;;;;;4.88;3.50;;;;;;;-140.66;100.00;55571.53;5134285;28;20038;-72
2023/08/13 09:44:41;;;;;;;4.63;3.60;;;;;;;-140.66;100.00;55571.53;5133992;28;20111;-71
2023/08/13 09:48:26;;;;;;;5.47;3.38;;;;;;;-140.66;100.00;55571.53;5133999;28;20047;-72
2023/08/13 09:52:17;;;;;;;11.10;3.95;;;;;;;-140.66;100.00;55571.53;5134215;28;20024;-73
2023/08/13 09:56:20;;;;;;;4.20;3.78;;;;;;;-140.66;100.00;55571.53;5134882;28;20032;-72
2023/08/13 10:00:07;;;;;;;4.88;3.80;;;;;;;-140.66;100.00;55571.53;5134249;28;20084;-71
2023/08/13 10:03:51;;;;;;;5.05;3.40;;;;;;;-140.66;100.00;55571.53;5144038;27;20034;-71
2023/08/13 10:07:37;;;;;;;6.85;3.20;;;;;;;-140.66;100.00;55571.53;5140344;28;20047;-72
2023/08/13 10:11:22;;;;;;;5.82;3.08;;;;;;;-140.66;100.00;55571.53;5133654;28;20414;-72
2023/08/13 10:15:07;;;;;;;13.05;3.65;;;;;;;-140.66;100.00;55571.53;5135020;28;20433;-72
2023/08/13 10:18:52;;;;;;;3.67;3.13;;;;;;;-140.66;100.00;55571.53;5136457;27;20058;-73
2023/08/13 10:22:37;;;;;;;6.65;3.47;;;;;;;-140.66;100.00;55571.53;5137852;27;20045;-73
2023/08/13 10:26:24;;;;;;;5.93;3.70;;;;;;;-140.66;100.00;55571.53;5137132;27;20341;-72
2023/08/13 10:30:16;;;;;;;5.63;3.53;;;;;;;-140.66;100.00;55571.53;5138418;27;20505;-74
2023/08/13 10:34:10;;;;;;;3.72;3.35;;;;;;;-140.66;100.00;55571.53;5138145;27;20121;-72
2023/08/13 10:37:59;;;;;;;5.45;3.80;;;;;;;-140.66;100.00;55571.53;5137819;27;20031;-73
2023/08/13 10:41:56;;;;;;;8.52;4.00;;;;;;;-140.66;100.00;55571.53;5137548;27;20051;-71
2023/08/13 10:45:40;;;;;;;14.43;4.03;;;;;;;-140.66;100.00;55571.53;5137846;27;20368;-71
2023/08/13 10:49:26;;;;;;;4.20;3.47;;;;;;;-140.66;100.00;55571.53;5136319;27;20085;-71
2023/08/13 10:53:13;;;;;;;4.70;3.70;;;;;;;-140.66;100.00;55571.53;5137015;27;20039;-72
2023/08/13 10:57:01;;;;;;;8.07;3.50;;;;;;;-140.66;100.00;55571.53;5137827;27;20054;-72
2023/08/13 11:00:46;;;;;;;5.28;3.60;;;;;;;-140.66;100.00;55571.53;5136993;27;20159;-72
2023/08/13 11:04:31;;;;;;;3.90;3.40;;;;;;;-140.66;100.00;55571.53;5136627;27;20167;-72
2023/08/13 11:08:19;;;;;;;5.20;3.67;;;;;;;-140.66;100.00;55571.53;5136623;27;20074;-72
2023/08/13 11:12:05;;;;;;;8.38;3.60;;;;;;;-140.66;100.00;55571.53;5138652;27;20027;-73
2023/08/13 11:15:53;;;;;;;5.10;3.67;;;;;;;-140.66;100.00;55571.53;5136609;27;20091;-73
2023/08/13 11:19:38;;;;;;;4.07;3.60;;;;;;;-140.66;100.00;55571.53;5137177;27;20031;-73
2023/08/13 11:23:22;;;;;;;4.15;3.35;;;;;;;-140.66;100.00;55571.53;5136421;27;20058;-72
2023/08/13 11:27:07;;;;;;;5.22;3.58;;;;;;;-140.66;100.00;55571.53;5137047;27;20456;-73
2023/08/13 11:30:54;;;;;;;3.60;3.30;;;;;;;-140.66;100.00;55571.53;5134958;27;20023;-72
2023/08/13 11:34:38;;;;;;;4.93;3.45;;;;;;;-140.66;100.00;55571.53;5136389;27;20110;-72
2023/08/13 11:38:23;;;;;;;5.80;3.65;;;;;;;-140.66;100.00;55571.53;5136573;27;20030;-72
2023/08/13 11:42:10;;;;;;;6.45;3.30;;;;;;;-140.66;100.00;55571.53;5135807;27;20091;-71
2023/08/13 11:45:55;;;;;;;27.05;4.60;;;;;;;-140.66;100.00;55571.53;5135680;27;20023;-71
2023/08/13 11:49:40;;;;;;;4.75;4.10;;;;;;;-140.66;100.00;55571.53;5136731;27;20058;-72
2023/08/13 11:53:26;;;;;;;5.80;3.85;;;;;;;-140.66;100.00;55571.53;5135879;27;20028;-72
2023/08/13 11:57:11;;;;;;;7.20;4.00;;;;;;;-140.66;100.00;55571.53;5136601;27;20066;-72
2023/08/13 12:00:56;;;;;;;5.97;3.75;;;;;;;-140.66;100.00;55571.53;5136367;27;20015;-72
2023/08/13 12:04:44;;;;;;;5.43;3.70;;;;;;;-140.66;100.00;55571.53;5136153;27;20034;-72
2023/08/13 12:08:37;;;;;;;4.55;3.75;;;;;;;-140.66;100.00;55571.53;5135141;27;20023;-73
2023/08/13 12:12:21;;;;;;;4.38;3.80;;;;;;;-140.66;100.00;55571.53;5134316;27;20034;-72
2023/08/13 12:16:05;;;;;;;5.78;3.58;;;;;;;-140.66;100.00;55571.53;5135825;27;20023;-72
2023/08/13 12:19:50;;;;;;;7.18;3.58;;;;;;;-140.66;100.00;55571.53;5135260;27;20023;-72
2023/08/13 12:23:34;;;;;;;4.32;3.55;;;;;;;-140.66;100.00;55571.53;5136405;27;20021;-72
2023/08/13 12:27:18;;;;;;;4.30;3.60;;;;;;;-140.66;100.00;55571.53;5136156;27;20033;-72
2023/08/13 12:31:02;;;;;;;3.67;3.20;;;;;;;-140.66;100.00;55571.53;5136675;27;20475;-72
2023/08/13 12:34:47;;;;;;;5.07;3.45;;;;;;;-140.66;100.00;55571.53;5135992;27;20468;-72
2023/08/13 12:38:33;;;;;;;4.43;3.53;;;;;;;-140.66;100.00;55571.53;5140825;27;20023;-72
2023/08/13 12:42:17;;;;;;;5.78;3.55;;;;;;;-140.66;100.00;55571.53;5152397;27;20023;-72
2023/08/13 12:46:03;;;;;;;4.28;3.40;;;;;;;-140.66;100.00;55571.53;5135512;27;20047;-72
2023/08/13 12:49:47;;;;;;;10.93;3.90;;;;;;;-140.66;100.00;55571.53;5135279;27;20496;-72
2023/08/13 12:53:32;;;;;;;6.40;3.70;;;;;;;-140.66;100.00;55571.53;5134952;27;20027;-73
2023/08/13 12:57:16;;;;;;;7.00;3.65;;;;;;;-140.66;100.00;55571.53;5135344;27;20087;-73
2023/08/13 13:01:01;;;;;;;4.78;3.58;;;;;;;-140.66;100.00;55571.53;5134498;27;20027;-73
2023/08/13 13:04:45;;;;;;;3.97;3.35;;;;;;;-140.66;100.00;55571.53;5135406;27;20027;-73
2023/08/13 13:08:29;;;;;;;4.82;3.55;;;;;;;-140.66;100.00;55571.53;5146463;27;20079;-71
2023/08/13 13:12:13;;;;;;;5.15;3.50;;;;;;;-140.66;100.00;55571.53;5136223;27;20034;-72
2023/08/13 13:15:58;;;;;;;4.80;3.35;;;;;;;-140.66;100.00;55571.53;5135477;27;20455;-73
2023/08/13 13:19:42;;;;;;;6.20;3.75;;;;;;;-140.66;100.00;55571.53;5135175;27;20031;-72
2023/08/13 13:23:26;;;;;;;6.65;3.45;;;;;;;-140.66;100.00;55571.53;5134028;28;20062;-73
2023/08/13 13:27:10;;;;;;;5.65;3.55;;;;;;;-140.66;100.00;55571.53;5134921;28;20027;-73
2023/08/13 13:30:55;;;;;;;4.18;3.20;;;;;;;-140.66;100.00;55571.53;5134321;28;20525;-72
2023/08/13 13:34:39;;;;;;;4.03;3.42;;;;;;;-140.66;100.00;55571.53;5134178;28;20035;-73
2023/08/13 13:38:23;;;;;;;6.35;3.50;;;;;;;-140.66;100.00;55571.53;5133777;28;20030;-72
2023/08/13 13:42:08;;;;;;;6.88;3.75;;;;;;;-140.66;100.00;55571.53;5134178;28;20027;-72
2023/08/13 13:45:52;;;;;;;5.68;3.58;;;;;;;-140.66;100.00;55571.53;5135307;28;20031;-72
2023/08/13 13:49:36;;;;;;;4.68;3.58;;;;;;;-140.66;100.00;55571.53;5133687;28;20388;-72
2023/08/13 13:53:20;;;;;;;4.22;3.72;;;;;;;-140.66;100.00;55571.53;5135093;27;20015;-73
2023/08/13 13:57:04;;;;;;;4.20;3.60;;;;;;;-140.66;100.00;55571.53;5138019;27;20030;-72
2023/08/13 14:00:49;;;;;;;4.70;3.60;;;;;;;-140.66;100.00;55571.53;5138659;27;20103;-72
2023/08/13 14:04:33;;;;;;;8.00;3.50;;;;;;;-140.66;100.00;55571.53;5139561;27;20034;-72
2023/08/13 14:08:18;;;;;;;4.40;3.00;;;;;;;-140.66;100.00;55571.53;5139070;27;20452;-73
2023/08/13 14:12:02;;;;;;;8.70;3.70;;;;;;;-140.66;100.00;55571.53;5137576;27;20062;-73
2023/08/13 14:15:47;;;;;;;8.20;3.75;;;;;;;-140.66;100.00;55571.53;5137635;27;20054;-73
2023/08/13 14:19:31;;;;;;;5.95;3.70;;;;;;;-140.66;100.00;55571.53;5139008;27;20023;-73
2023/08/13 14:23:15;;;;;;;7.30;3.90;;;;;;;-140.66;100.00;55571.53;5137916;27;20051;-73
2023/08/13 14:27:00;;;;;;;24.88;4.20;;;;;;;-140.66;100.00;55571.53;5137159;27;20368;-72
2023/08/13 14:30:44;;;;;;;5.03;3.80;;;;;;;-140.66;100.00;55571.53;5137570;27;20023;-71
2023/08/13 14:34:28;;;;;;;10.07;3.63;;;;;;;-140.66;100.00;55571.53;5138892;27;20114;-71
2023/08/13 14:38:13;;;;;;;5.53;3.70;;;;;;;-140.66;100.00;55571.53;5137288;27;20369;-72
2023/08/13 14:41:57;;;;;;;4.20;3.78;;;;;;;-140.66;100.00;55571.53;5137022;27;20015;-73
2023/08/13 14:45:42;;;;;;;7.38;3.70;;;;;;;-140.66;100.00;55571.53;5138052;27;20038;-72
2023/08/13 14:49:26;;;;;;;5.57;3.55;;;;;;;-140.66;100.00;55571.53;5139076;27;20087;-73
2023/08/13 14:53:10;;;;;;;11.18;4.10;;;;;;;-140.66;100.00;55571.53;5138470;27;20474;-73
2023/08/13 14:56:55;;;;;;;5.10;3.80;;;;;;;-140.66;100.00;55571.53;5136786;27;20402;-72
2023/08/13 15:00:39;;;;;;;3.80;3.40;;;;;;;-140.66;100.00;55571.53;5136874;27;20031;-72
2023/08/13 15:04:23;;;;;;;4.63;3.70;;;;;;;-140.66;100.00;55571.53;5135630;27;20019;-72
2023/08/13 15:08:07;;;;;;;4.80;3.55;;;;;;;-140.66;100.00;55571.53;5140029;27;20030;-73
2023/08/13 15:11:52;;;;;;;7.93;3.55;;;;;;;-140.66;100.00;55571.53;5152286;27;20027;-73
2023/08/13 15:15:36;;;;;;;7.15;3.92;;;;;;;-140.66;100.00;55571.53;5150765;27;20027;-72
2023/08/13 15:19:20;;;;;;;7.85;4.10;;;;;;;-140.66;100.00;55571.53;5145181;27;20106;-72
2023/08/13 15:23:04;;;;;;;6.43;3.75;;;;;;;-140.66;100.00;55571.53;5149848;27;20019;-72
2023/08/13 15:26:49;;;;;;;5.32;3.67;;;;;;;-140.66;100.00;55571.53;5137636;27;20326;-72
2023/08/13 15:30:33;;;;;;;4.07;3.53;;;;;;;-140.66;100.00;55571.53;5135844;27;20414;-72
2023/08/13 15:34:22;;;;;;;5.68;3.85;;;;;;;-140.66;100.00;55571.53;5137766;27;20033;-72
2023/08/13 15:38:06;;;;;;;6.05;3.70;;;;;;;-140.66;100.00;55571.53;5138095;27;20159;-71
2023/08/13 15:41:51;;;;;;;4.97;3.92;;;;;;;-140.66;100.00;55571.53;5138341;27;20424;-72
2023/08/13 15:45:35;;;;;;;5.28;3.70;;;;;;;-140.66;100.00;55571.53;5148965;27;20104;-73
2023/08/13 15:49:19;;;;;;;4.30;3.60;;;;;;;-140.66;100.00;55571.53;5141098;27;20050;-73
2023/08/13 15:53:04;;;;;;;6.28;3.50;;;;;;;-140.66;100.00;55571.53;5138903;27;20461;-73
2023/08/13 15:56:48;;;;;;;6.97;3.83;;;;;;;-140.66;100.00;55571.53;5135749;27;20058;-71
2023/08/13 16:00:34;;;;;;;5.63;3.80;;;;;;;-140.66;100.00;55571.53;5136074;27;20023;-73
2023/08/13 16:04:18;;;;;;;5.65;3.65;;;;;;;-140.66;100.00;55571.53;5135631;27;20030;-73
2023/08/13 16:08:03;;;;;;;6.38;3.42;;;;;;;-140.66;100.00;55571.53;5138541;27;20075;-72
2023/08/13 16:11:56;;;;;;;4.88;3.30;;;;;;;-140.66;100.00;55571.53;5137983;27;20034;-73
2023/08/13 16:15:40;;;;;;;16.77;5.10;;;;;;;-140.66;100.00;55571.53;5144691;27;20062;-72
2023/08/13 16:19:25;;;;;;;17.42;5.80;;;;;;;-140.66;100.00;55571.53;5137781;27;20022;-72
2023/08/13 16:23:09;;;;;;;12.95;4.43;;;;;;;-140.66;100.00;55571.53;5135618;27;20026;-72
2023/08/13 16:26:54;;;;;;;6.93;3.72;;;;;;;-140.66;100.00;55571.53;5135002;27;20055;-72
2023/08/13 16:30:38;;;;;;;9.32;3.95;;;;;;;-140.66;100.00;55571.53;5134550;27;20034;-72
2023/08/13 16:34:23;;;;;;;12.10;5.70;;;;;;;-140.66;100.00;55571.53;5136183;27;20027;-72
2023/08/13 16:38:07;;;;;;;8.63;4.57;;;;;;;-140.66;100.00;55571.53;5135222;27;20115;-72
2023/08/13 16:41:52;;;;;;;8.55;3.80;;;;;;;-140.66;100.00;55571.53;5137397;27;20385;-73
2023/08/13 16:45:36;;;;;;;7.70;3.75;;;;;;;-140.66;100.00;55571.53;5150496;27;20052;-73
2023/08/13 16:49:20;;;;;;;14.55;4.78;;;;;;;-140.66;100.00;55571.53;5135214;27;20055;-73
2023/08/13 16:53:05;;;;;;;11.07;4.88;;;;;;;-140.66;100.00;55571.53;5135537;27;20100;-72
2023/08/13 16:56:49;;;;;;;6.90;4.07;;;;;;;-140.66;100.00;55571.53;5136025;27;20033;-73
2023/08/13 17:00:33;;;;;;;10.02;4.40;;;;;;;-140.66;100.00;55571.53;5135069;27;20441;-73